Racecast

Nick Huss

Temperance Bedford (MI) · 12 · SECMI D1MONROE · Compare head to head

Athlete rating 117.5 2019 TF season
Best race 120.4 TF
Races 56
Seasons 6 2014 — 2019

RankedNation #27500·MI #1078·MI D1 #690·SEC #102·Team #17 ?

Rating scale ?
Speed rating — all races

Cross Country

XC speed rating

2018 XC 109.7

Temperance Bedford (MI) · Grade 12

Date Meet Event Result Place Rating Difficulty PR/SR Flags
2018-10-27 Lake Erie Metro Park OFFICIAL 5000m 19:33.2 48th · 10th on team 106.8 +0.007
2018-10-18 Hudson Mills Metropark - OFFICIAL 5000m 19:05.9 87th · 10th on team 107.5 -0.006 CSR
2018-10-13 Munson Park 5000m 18:32.1 25th · 8th on team 112.0 +0.007 ★PR ★CR SR CSR
2018-10-09 Indian Creek OFFICIAL 5000m 19:01 4th · 4th on team 111.3 +0.004 ★CR CSR
2018-10-06 Portage West MS 5000m 19:08.6 125th · 6th on team 108.2 -0.003 ★CR CSR
2018-09-29 Lake Erie Metro Park OFFICIAL 5000m 19:01.6 33rd · 7th on team 109.7 +0.007 ★CR CSR
2018-09-21 Ella Sharp Park OFFICIAL 5000m 18:36.1 17th · 3rd on team 112.5 -0.001 PR ★CR SR CSR RSR

2016 XC 106.9

Temperance Bedford (MI) · Grade 10

Date Meet Event Result Place Rating Difficulty PR/SR Flags
2016-10-29 Lake Erie Metro Park OFFICIAL 5000m 19:41.8 42nd · 5th on team 105.8 +0.007 CR CSR
2016-10-20 Hudson Mills Metropark - OFFICIAL 5000m 19:49.1 99th · 8th on team 103.2 -0.006
2016-10-15 Hudson Mills Metropark - OFFICIAL 5000m 18:47.3 26th · 4th on team 110.0 -0.006 ★CR CSR
2016-10-08 Portage West MS 5000m 19:50 296th · 10th on team 103.9 -0.003 CR CSR
2016-10-01 Pearson's Metro Park 5000m 19:13.4 16th · 6th on team 107.3 +0.001 ★CR CSR
2016-09-27 Pioneer HS 5000m 20:04.2 48th · 10th on team 105.7 +0.018 ★CR CSR
2016-09-23 Ella Sharp Park OFFICIAL 5000m 18:45.3 22nd · 3rd on team 110.6 -0.001 PR CR SR CSR
2016-09-17 Springfield Oaks County Park OFFICIAL 5000m 20:16 43rd · 3rd on team 106.7 +0.019 ★CR CSR
2016-09-13 Heritage Park (Adrian) OFFICIAL 5000m 19:50.5 44th · 4th on team 107.9 +0.035 ★CR CSR
2016-09-10 Hedges Boyer Park 5000m 18:58.8 124th · 4th on team 109.1 -0.003 PR ★CR SR CSR
2016-09-02 Oakland University 4000m 14:43.5 4th · 1st on team 110.9 +0.013 ★PR ★CR SR CSR RSR
2016-08-25 Heritage Park (Adrian) OFFICIAL 5000m 21:08.4 55th · 7th on team 101.2 +0.035 SR CSR RSR

2015 XC 99.7

Temperance Bedford (MI) · Grade 9

Date Meet Event Result Place Rating Difficulty PR/SR Flags
2015-10-31 Lake Erie Metro Park OFFICIAL 5000m 20:40.2 88th · 12th on team 100.0 +0.007 CR CSR
2015-10-22 Hudson Mills Metropark - OFFICIAL 5000m 20:02.8 124th · 9th on team 102.0 -0.006 PR CR SR CSR
2015-10-17 Hudson Mills Metropark - OFFICIAL 5000m 21:12.7 220th · 15th on team 96.2 -0.006 CR CSR
2015-10-03 Pearson's Metro Park 5000m 20:05 6th · 6th on team 102.6 +0.001 PR CR SR CSR RSR
2015-09-29 Indian Creek OFFICIAL 5000m 21:18.6 94th · 12th on team 96.8 +0.004 CR CSR
2015-09-19 Springfield Oaks County Park OFFICIAL 5000m 20:37 78th · 10th on team 102.0 +0.019 PR CR SR CSR RSR
2015-09-10 Munson Park 5000m 20:41.7 89th · 11th on team 100.3 +0.007 PR CR SR CSR
2015-09-04 Hillsdale College 5000m 22:08.4 32nd · 22nd on team 97.2 +0.047 ★CR CSR
2015-08-27 Heritage Park (Adrian) OFFICIAL 5000m 20:48.3 82nd · 16th on team 100.4 +0.035 PR CR SR CSR RSR

2014 XC 105.8

Temperance Bedford (MI) · Grade 8

Date Meet Event Result Place Rating Difficulty PR/SR Flags
2014-10-11 Munson Park 2500m 12:51.4 26th · 9th on team 91.3 ★PR ★CR SR CSR
2014-10-04 Fostoria HS 3200m 13:41.2 81st · 8th on team 112.6 +0.031 ★CR CSR
2014-09-27 Pearson's Metro Park 3200m 13:01.7 44th · 6th on team 115.8 -0.005 ★PR ★CR SR CSR
2014-09-24 Hudson Mills Metropark - OFFICIAL 2735m 12:54.3 30th · 5th on team 101.8 ★PR ★CR SR CSR
2014-09-20 Sterling State Park 3218m 13:02.4 21st · 4th on team 118.2 +0.019 ★PR ★CR R SR CSR RSR
2014-09-17 Indian Creek OFFICIAL 2500m 13:05.5 6th · 6th on team 89.4 PR ★CR SR CSR
2014-09-06 Hedges Boyer Park 3200m 13:20.7 141st · 6th on team 112.9 +0.015 PR ★CR R SR CSR RSR
2014-08-27 Indian Creek OFFICIAL 3200m 14:19 6th · 6th on team 104.2 -0.001 PR ★CR R SR CSR RSR

Track & Field

TF speed rating

2019 TF 112.9

Temperance Bedford (MI) · Grade 12

Date Meet Event Result Place Rating Difficulty PR/SR Flags
2019-05-17 MHSAA LP Region 04-1 @ Saline 800m 2:11.68 22nd · 2nd on team 115.6 -0.033
2019-05-10 SEC Red Divisional Championship Meet 800m 2:08.6 20th · 3rd on team 120.4 -0.022 ★PR ★R SR RSR
2019-04-30 SEC-R: Monroe & Bedford @ Skyline 800m 2:16.87 9th · 2nd on team 112.8 -0.021 PR SR RSR
2019-04-09 SEC-R: Bedford @ Pioneer 800m 2:18.08 9th · 2nd on team 112.5 -0.017 SR RSR
2019-04-09 SEC-R: Bedford @ Pioneer 1600m 5:38.67 22nd · 9th on team 103.1 -0.017 SR

2017 TF 111.2

Temperance Bedford (MI) · Grade 10

Date Meet Event Result Place Rating Difficulty PR/SR Flags
2017-04-25 SEC Red: Bedford @ Skyline 800m 2:17.39 5th · 3rd on team 111.5 -0.021 PR SR RSR
2017-04-25 SEC Red: Bedford @ Skyline 1600m 5:02.55 4th · 2nd on team 114.0 -0.021 ★PR SR RSR
2017-03-28 SEC Red: Bedford @ Pioneer 800m 2:22.31 10th · 5th on team 108.3 -0.017 PR SR RSR

2016 TF 106.1

Temperance Bedford (MI) · Grade 9

Date Meet Event Result Place Rating Difficulty PR/SR Flags
2016-05-26 Beck Freshman Invitational 3200m 12:09 3rd · 2nd on team 103.8 -0.013
2016-05-26 Beck Freshman Invitational 1600m 5:22 5th · 3rd on team 108.3 -0.013
2016-05-18 Eagle Boys Invitational 1600m 5:26.33 90th · 8th on team 105.4 -0.021
2016-05-18 Eagle Boys Invitational 1600m 5:14.44 60th · 4th on team 109.4 -0.021
2016-05-13 SEC Red Division Finals 1600m 5:10.03 25th · 4th on team 111.5 -0.021 PR SR RSR
2016-05-03 SEC Tri: Huron/Skyline @ Bedford 3200m 12:00.55 10th · 6th on team 102.7 -0.026 ★PR SR
2016-05-03 SEC Tri: Huron/Skyline @ Bedford 1600m 5:12.07 12th · 6th on team 109.2 -0.026 PR SR RSR
2016-04-26 Bedford @ Monroe 1600m 5:21.5 9th · 4th on team 107.0 -0.022 PR SR RSR
2016-04-26 Bedford @ Monroe 800m 2:31 11th · 7th on team 101.3 -0.022
2016-04-19 Saline @ Bedford 800m 2:25.79 21st · 7th on team 104.8 -0.026 PR SR RSR
2016-04-19 Saline @ Bedford 1600m 5:25.4 24th · 10th on team 105.6 -0.026 PR SR RSR
2016-04-12 SEC: Bedford @ Pioneer 1600m 5:33.08 17th · 6th on team 103.8 -0.017 PR SR RSR